createdAt,value
2022-11-04T00:00:08.254Z,36.23
2022-11-04T00:01:40.617Z,36.28
2022-11-04T00:03:12.221Z,36.36
2022-11-04T00:04:43.847Z,36.46
2022-11-04T00:06:15.602Z,36.82
2022-11-04T00:08:05.863Z,36.49
2022-11-04T00:09:37.438Z,36.53
2022-11-04T00:11:27.995Z,36.79
2022-11-04T00:13:00.105Z,36.64
2022-11-04T00:14:32.172Z,37.00
2022-11-04T00:16:22.461Z,36.74
2022-11-04T00:17:54.217Z,36.70
2022-11-04T00:19:25.875Z,36.87
2022-11-04T00:21:16.176Z,37.01
2022-11-04T00:23:06.645Z,36.83
2022-11-04T00:24:57.373Z,37.16
2022-11-04T00:26:47.429Z,37.06
2022-11-04T00:28:37.912Z,36.77
2022-11-04T00:30:10.211Z,36.80
2022-11-04T00:32:00.401Z,37.07
2022-11-04T00:33:31.957Z,36.99
2022-11-04T00:35:03.681Z,36.99
2022-11-04T00:36:35.269Z,37.12
2022-11-04T00:38:07.008Z,37.13
2022-11-04T00:39:38.764Z,37.18
2022-11-04T00:41:29.129Z,37.42
2022-11-04T00:43:00.733Z,37.37
2022-11-04T00:44:32.531Z,37.68
2022-11-04T00:46:04.057Z,37.40
2022-11-04T00:47:35.787Z,37.50
2022-11-04T00:49:07.389Z,37.69
2022-11-04T00:50:39.609Z,37.52
2022-11-04T00:52:11.128Z,37.67
2022-11-04T00:53:43.197Z,37.29
2022-11-04T00:55:14.703Z,37.66
2022-11-04T00:56:46.223Z,37.59
2022-11-04T00:58:17.805Z,37.58
2022-11-04T00:59:49.439Z,37.64
2022-11-04T01:01:21.278Z,37.78
2022-11-04T01:02:53.047Z,37.88
2022-11-04T01:04:24.647Z,37.76
2022-11-04T01:05:58.300Z,37.82
2022-11-04T01:07:29.807Z,37.88
2022-11-04T01:09:02.213Z,37.71
2022-11-04T01:10:35.163Z,37.49
2022-11-04T01:12:06.717Z,37.64
2022-11-04T01:13:38.404Z,37.64
2022-11-04T01:15:10.255Z,37.40
2022-11-04T01:16:42.358Z,37.56
2022-11-04T01:18:13.875Z,37.40
2022-11-04T01:19:45.438Z,37.53
2022-11-04T01:21:17.096Z,37.86
2022-11-04T01:22:48.608Z,37.94
2022-11-04T01:24:20.209Z,37.98
2022-11-04T01:25:51.697Z,37.98
2022-11-04T01:27:44.660Z,38.17
2022-11-04T01:29:48.030Z,38.05
2022-11-04T01:31:59.010Z,38.25
2022-11-04T01:33:30.906Z,38.24
2022-11-04T01:35:02.482Z,38.26
2022-11-04T01:36:34.217Z,38.31
2022-11-04T01:38:06.390Z,38.29
2022-11-04T01:39:38.261Z,38.07
2022-11-04T01:41:10.986Z,38.12
2022-11-04T01:42:42.820Z,38.32
2022-11-04T01:44:33.158Z,38.44
2022-11-04T01:46:04.903Z,38.33
2022-11-04T01:47:56.806Z,38.60
2022-11-04T01:49:33.625Z,38.69
2022-11-04T01:51:05.212Z,38.58
2022-11-04T01:52:47.323Z,38.58
2022-11-04T01:54:18.807Z,38.57
2022-11-04T01:55:56.155Z,38.45
2022-11-04T01:57:32.680Z,38.51
2022-11-04T01:59:06.137Z,38.44
2022-11-04T02:00:41.462Z,38.53
2022-11-04T02:02:13.179Z,38.47
2022-11-04T02:03:52.153Z,38.94
2022-11-04T02:05:23.737Z,38.98
2022-11-04T02:07:02.482Z,39.09
2022-11-04T02:08:34.127Z,38.80
2022-11-04T02:10:05.976Z,39.02
2022-11-04T02:12:00.815Z,38.89
2022-11-04T02:13:33.473Z,39.14
2022-11-04T02:15:05.084Z,38.96
2022-11-04T02:16:45.868Z,39.12
2022-11-04T02:18:18.153Z,39.20
2022-11-04T02:19:53.428Z,39.08
2022-11-04T02:21:43.272Z,39.07
2022-11-04T02:23:26.992Z,39.09
2022-11-04T02:25:12.856Z,39.32
2022-11-04T02:26:50.520Z,39.16
2022-11-04T02:28:28.133Z,39.26
2022-11-04T02:30:08.715Z,39.04
2022-11-04T02:31:59.263Z,38.98
2022-11-04T02:33:30.817Z,39.21
2022-11-04T02:35:06.784Z,39.29
2022-11-04T02:36:47.352Z,39.08
2022-11-04T02:38:22.023Z,39.32
2022-11-04T02:40:01.060Z,39.57
2022-11-04T02:41:42.708Z,39.19
2022-11-04T02:43:23.029Z,39.37
2022-11-04T02:44:59.705Z,39.54
2022-11-04T02:46:35.590Z,39.13
2022-11-04T02:48:12.160Z,38.99
2022-11-04T02:49:55.145Z,39.46
2022-11-04T02:51:30.251Z,38.94
2022-11-04T02:53:01.754Z,39.05
2022-11-04T02:54:47.934Z,39.52
2022-11-04T02:56:19.682Z,39.44
2022-11-04T02:57:51.322Z,38.88
2022-11-04T02:59:36.001Z,39.42
2022-11-04T03:01:08.104Z,39.29
2022-11-04T03:02:41.162Z,39.51
2022-11-04T03:04:15.898Z,39.02
2022-11-04T03:05:47.990Z,39.46
2022-11-04T03:07:22.763Z,39.35
2022-11-04T03:08:54.438Z,39.55
2022-11-04T03:10:31.057Z,39.67
2022-11-04T03:12:03.593Z,39.43
2022-11-04T03:13:39.849Z,40.28
2022-11-04T03:15:13.010Z,40.30
2022-11-04T03:16:48.795Z,40.19
2022-11-04T03:18:23.040Z,40.21
2022-11-04T03:19:55.345Z,40.23
2022-11-04T03:21:27.493Z,40.63
2022-11-04T03:23:02.594Z,40.47
2022-11-04T03:24:34.815Z,40.62
2022-11-04T03:26:11.431Z,40.36
2022-11-04T03:27:54.794Z,40.02
2022-11-04T03:29:30.112Z,40.58
2022-11-04T03:31:02.021Z,40.26
2022-11-04T03:32:36.696Z,40.66
2022-11-04T03:34:08.319Z,40.93
2022-11-04T03:35:40.158Z,40.92
2022-11-04T03:37:11.903Z,40.57
2022-11-04T03:38:43.533Z,40.71
2022-11-04T03:40:15.111Z,40.80
2022-11-04T03:41:59.533Z,41.05
2022-11-04T03:43:31.060Z,41.02
2022-11-04T03:45:03.439Z,40.60
2022-11-04T03:46:35.787Z,41.18
2022-11-04T03:48:07.393Z,40.98
2022-11-04T03:49:38.959Z,40.79
2022-11-04T03:51:10.579Z,40.58
2022-11-04T03:52:42.197Z,41.14
2022-11-04T03:54:13.701Z,40.91
2022-11-04T03:56:04.056Z,40.74
2022-11-04T03:57:36.666Z,41.11
2022-11-04T03:59:12.428Z,40.86
2022-11-04T04:00:47.976Z,40.90
2022-11-04T04:02:27.838Z,41.37
2022-11-04T04:04:08.379Z,41.21
2022-11-04T04:05:51.649Z,41.39
2022-11-04T04:07:26.873Z,41.64
2022-11-04T04:09:03.478Z,41.64
2022-11-04T04:10:40.252Z,41.23
2022-11-04T04:12:14.731Z,41.68
2022-11-04T04:13:52.210Z,41.39
2022-11-04T04:15:24.764Z,41.20
2022-11-04T04:16:56.287Z,41.91
2022-11-04T04:18:32.378Z,41.81
2022-11-04T04:20:05.546Z,41.51
2022-11-04T04:21:43.103Z,41.56
2022-11-04T04:23:37.296Z,41.63
2022-11-04T04:25:28.065Z,41.69
2022-11-04T04:27:18.605Z,41.79
2022-11-04T04:28:50.463Z,41.61
2022-11-04T04:30:22.015Z,41.55
2022-11-04T04:31:57.827Z,41.61
2022-11-04T04:33:29.358Z,41.65
2022-11-04T04:35:19.611Z,41.56
2022-11-04T04:36:54.331Z,41.42
2022-11-04T04:38:45.380Z,41.43
2022-11-04T04:40:35.880Z,41.70
2022-11-04T04:42:26.444Z,41.78
2022-11-04T04:44:16.767Z,41.93
2022-11-04T04:45:49.594Z,41.54
2022-11-04T04:47:22.239Z,41.95
2022-11-04T04:48:53.772Z,41.57
2022-11-04T04:50:26.258Z,41.67
2022-11-04T04:51:57.866Z,41.47
2022-11-04T04:53:29.434Z,41.71
2022-11-04T04:55:00.950Z,41.39
2022-11-04T04:56:32.480Z,41.84
2022-11-04T04:58:04.065Z,41.89
2022-11-04T04:59:35.672Z,41.97
2022-11-04T05:01:09.275Z,42.11
2022-11-04T05:02:41.217Z,41.65
2022-11-04T05:04:12.799Z,41.79
2022-11-04T05:05:44.662Z,41.74
2022-11-04T05:07:16.287Z,42.26
2022-11-04T05:08:47.871Z,41.73
2022-11-04T05:10:19.542Z,41.81
2022-11-04T05:11:51.259Z,41.91
2022-11-04T05:13:30.374Z,41.40
2022-11-04T05:15:02.088Z,41.65
2022-11-04T05:16:39.512Z,41.74
2022-11-04T05:18:12.349Z,42.21
2022-11-04T05:19:44.062Z,42.11
2022-11-04T05:21:15.741Z,41.55
2022-11-04T05:22:47.358Z,41.79
2022-11-04T05:24:18.948Z,41.82
2022-11-04T05:25:50.449Z,41.99
2022-11-04T05:27:22.100Z,42.17
2022-11-04T05:28:53.772Z,42.62
2022-11-04T05:30:25.284Z,42.72
2022-11-04T05:31:57.139Z,42.15
2022-11-04T05:33:28.800Z,42.41
2022-11-04T05:35:00.356Z,42.17
2022-11-04T05:36:33.334Z,42.21
2022-11-04T05:38:04.886Z,42.00
2022-11-04T05:39:36.559Z,41.62
2022-11-04T05:41:08.506Z,42.27
2022-11-04T05:42:40.159Z,42.32
2022-11-04T05:44:12.253Z,42.03
2022-11-04T05:45:43.880Z,42.40
2022-11-04T05:47:15.457Z,42.65
2022-11-04T05:48:46.985Z,42.77
2022-11-04T05:50:18.606Z,42.76
2022-11-04T05:51:50.213Z,42.38
2022-11-04T05:53:21.849Z,42.05
2022-11-04T05:55:02.997Z,42.54
2022-11-04T05:56:39.987Z,42.48
2022-11-04T05:58:12.024Z,42.42
2022-11-04T05:59:44.219Z,42.68
2022-11-04T06:01:32.617Z,42.50
2022-11-04T06:03:04.356Z,42.32
2022-11-04T06:04:35.895Z,42.36
2022-11-04T06:06:07.470Z,42.28
2022-11-04T06:07:39.086Z,42.44
2022-11-04T06:09:10.903Z,42.25
2022-11-04T06:10:43.530Z,42.19
2022-11-04T06:12:15.881Z,42.26
2022-11-04T06:13:48.131Z,42.35
2022-11-04T06:15:20.367Z,42.22
2022-11-04T06:16:52.260Z,42.52
2022-11-04T06:18:24.076Z,42.17
2022-11-04T06:19:55.634Z,42.23
2022-11-04T06:21:28.121Z,42.18
2022-11-04T06:23:00.336Z,41.91
2022-11-04T06:24:32.203Z,41.96
2022-11-04T06:26:03.896Z,41.92
2022-11-04T06:27:35.625Z,41.81
2022-11-04T06:29:07.468Z,41.82
2022-11-04T06:30:42.555Z,41.83
2022-11-04T06:32:15.165Z,41.71
2022-11-04T06:33:46.891Z,41.77
2022-11-04T06:35:18.339Z,41.61
2022-11-04T06:36:50.144Z,41.86
2022-11-04T06:38:21.638Z,41.95
2022-11-04T06:39:53.349Z,42.10
2022-11-04T06:41:25.166Z,41.61
2022-11-04T06:42:56.961Z,41.77
2022-11-04T06:44:28.563Z,41.78
2022-11-04T06:46:00.763Z,41.66
2022-11-04T06:47:32.572Z,41.76
2022-11-04T06:49:04.652Z,41.71
2022-11-04T06:50:36.841Z,41.86
2022-11-04T06:52:08.499Z,41.55
2022-11-04T06:53:40.196Z,41.69
2022-11-04T06:55:12.043Z,41.61
2022-11-04T06:56:43.848Z,41.60
2022-11-04T06:58:15.460Z,41.50
2022-11-04T06:59:46.919Z,41.36
2022-11-04T07:01:22.044Z,41.25
2022-11-04T07:02:54.432Z,41.39
2022-11-04T07:04:26.151Z,41.50
2022-11-04T07:05:58.134Z,41.24
2022-11-04T07:07:29.829Z,41.05
2022-11-04T07:09:01.814Z,41.15
2022-11-04T07:10:33.855Z,41.07
2022-11-04T07:12:05.780Z,40.85
2022-11-04T07:13:37.720Z,40.83
2022-11-04T07:15:09.600Z,40.79
2022-11-04T07:16:41.207Z,40.88
2022-11-04T07:18:12.997Z,40.64
2022-11-04T07:19:44.750Z,40.68
2022-11-04T07:21:16.649Z,40.47
2022-11-04T07:22:48.295Z,40.62
2022-11-04T07:24:19.967Z,40.51
2022-11-04T07:25:51.742Z,40.25
2022-11-04T07:27:23.315Z,40.61
2022-11-04T07:28:54.978Z,40.17
2022-11-04T07:30:26.964Z,40.10
2022-11-04T07:31:59.564Z,39.78
2022-11-04T07:33:31.734Z,39.66
2022-11-04T07:35:03.665Z,39.54
2022-11-04T07:36:35.594Z,39.39
2022-11-04T07:38:07.793Z,39.29
2022-11-04T07:39:39.731Z,39.11
2022-11-04T07:41:11.604Z,39.02
2022-11-04T07:42:43.447Z,38.93
2022-11-04T07:44:15.598Z,38.90
2022-11-04T07:45:47.201Z,38.59
2022-11-04T07:47:18.795Z,38.51
2022-11-04T07:48:50.801Z,38.64
2022-11-04T07:50:22.408Z,38.71
2022-11-04T07:51:54.192Z,38.62
2022-11-04T07:53:26.535Z,38.36
2022-11-04T07:54:58.281Z,38.46
2022-11-04T07:56:29.933Z,38.27
2022-11-04T07:58:03.241Z,38.31
2022-11-04T07:59:34.759Z,38.31
2022-11-04T08:01:10.772Z,38.25
2022-11-04T08:02:44.654Z,38.13
2022-11-04T08:04:16.539Z,38.02
2022-11-04T08:05:48.495Z,38.14
2022-11-04T08:07:20.727Z,37.94
2022-11-04T08:08:54.332Z,37.75
2022-11-04T08:10:26.972Z,37.75
2022-11-04T08:11:59.150Z,37.71
2022-11-04T08:13:31.332Z,37.62
2022-11-04T08:15:03.225Z,37.50
2022-11-04T08:16:34.784Z,37.50
2022-11-04T08:18:06.618Z,37.57
2022-11-04T08:19:38.221Z,37.50
2022-11-04T08:21:10.201Z,37.51
2022-11-04T08:22:41.988Z,37.69
2022-11-04T08:24:13.684Z,37.16
2022-11-04T08:25:45.440Z,37.05
2022-11-04T08:27:17.066Z,36.93
2022-11-04T08:28:49.151Z,37.14
2022-11-04T08:30:20.985Z,37.25
2022-11-04T08:31:52.743Z,37.34
2022-11-04T08:33:25.130Z,37.28
2022-11-04T08:34:56.766Z,37.01
2022-11-04T08:36:29.312Z,36.84
2022-11-04T08:38:01.002Z,36.80
2022-11-04T08:39:32.705Z,36.92
2022-11-04T08:41:05.230Z,36.94
2022-11-04T08:42:36.880Z,36.92
2022-11-04T08:44:08.967Z,37.11
2022-11-04T08:45:41.439Z,37.00
2022-11-04T08:47:13.129Z,37.02
2022-11-04T08:48:44.869Z,37.00
2022-11-04T08:50:16.786Z,36.86
2022-11-04T08:51:54.573Z,36.72
2022-11-04T08:53:26.333Z,36.60
2022-11-04T08:54:57.972Z,36.44
2022-11-04T08:56:30.305Z,36.42
2022-11-04T08:58:02.092Z,36.32
2022-11-04T08:59:33.620Z,36.06
2022-11-04T09:01:06.021Z,36.08
2022-11-04T09:02:37.554Z,36.02
2022-11-04T09:04:10.357Z,35.92
2022-11-04T09:05:46.004Z,35.85
2022-11-04T09:07:17.901Z,35.99
2022-11-04T09:08:49.487Z,36.07
2022-11-04T09:10:21.188Z,35.95
2022-11-04T09:11:52.891Z,35.97
2022-11-04T09:13:24.548Z,35.97
2022-11-04T09:14:56.191Z,35.94
2022-11-04T09:16:28.343Z,35.86
2022-11-04T09:17:59.982Z,35.76
2022-11-04T09:19:32.664Z,35.57
2022-11-04T09:21:05.158Z,35.63
2022-11-04T09:22:39.538Z,35.62
2022-11-04T09:24:14.119Z,35.53
2022-11-04T09:25:45.707Z,35.25
2022-11-04T09:27:17.238Z,35.09
2022-11-04T09:28:48.885Z,35.18
2022-11-04T09:30:20.771Z,35.24
2022-11-04T09:31:52.373Z,34.98
2022-11-04T09:33:24.222Z,35.23
2022-11-04T09:34:55.861Z,35.17
2022-11-04T09:36:29.693Z,35.27
2022-11-04T09:38:02.259Z,35.11
2022-11-04T09:39:33.912Z,35.08
2022-11-04T09:41:20.748Z,35.06
2022-11-04T09:42:52.292Z,34.97
2022-11-04T09:44:59.800Z,34.84
2022-11-04T09:46:28.913Z,34.81
2022-11-04T09:48:01.719Z,34.69
2022-11-04T09:49:35.034Z,34.63
2022-11-04T09:51:06.684Z,34.48
2022-11-04T09:52:40.249Z,34.38
2022-11-04T09:54:22.952Z,34.20
2022-11-04T09:55:58.547Z,34.26
2022-11-04T09:57:30.488Z,34.20
2022-11-04T09:59:05.098Z,34.08
2022-11-04T10:00:37.224Z,34.15
2022-11-04T10:02:09.746Z,34.23
2022-11-04T10:03:41.509Z,34.12
2022-11-04T10:05:19.674Z,33.99
2022-11-04T10:06:51.334Z,33.78
2022-11-04T10:08:41.322Z,33.71
2022-11-04T10:10:25.401Z,33.41
2022-11-04T10:12:16.642Z,33.36
2022-11-04T10:13:58.492Z,33.12
2022-11-04T10:15:48.728Z,33.07
2022-11-04T10:17:27.164Z,32.93
2022-11-04T10:19:06.439Z,33.06
2022-11-04T10:20:43.458Z,32.70
2022-11-04T10:22:45.050Z,32.92
2022-11-04T10:24:35.348Z,32.38
2022-11-04T10:26:19.839Z,32.58
2022-11-04T10:27:51.465Z,32.33
2022-11-04T10:29:25.897Z,32.28
2022-11-04T10:30:57.652Z,32.20
2022-11-04T10:32:35.890Z,32.31
2022-11-04T10:34:09.714Z,32.29
2022-11-04T10:35:42.666Z,32.08
2022-11-04T10:37:14.277Z,32.12
2022-11-04T10:38:55.364Z,31.86
2022-11-04T10:40:31.559Z,32.01
2022-11-04T10:42:04.476Z,32.07
2022-11-04T10:43:36.762Z,31.92
2022-11-04T10:45:11.155Z,31.69
2022-11-04T10:46:54.644Z,31.76
2022-11-04T10:48:28.633Z,31.33
2022-11-04T10:50:29.890Z,31.32
2022-11-04T10:52:02.772Z,31.23
2022-11-04T10:53:34.918Z,31.17
2022-11-04T10:55:27.098Z,31.07
2022-11-04T10:56:59.230Z,31.09
2022-11-04T10:58:32.008Z,30.98
2022-11-04T11:00:05.511Z,30.63
2022-11-04T11:01:37.643Z,30.79
2022-11-04T11:03:21.708Z,30.49
2022-11-04T11:04:55.901Z,30.60
2022-11-04T11:06:27.684Z,30.11
2022-11-04T11:07:59.862Z,30.00
2022-11-04T11:09:33.227Z,30.29
2022-11-04T11:11:06.017Z,30.01
2022-11-04T11:12:51.478Z,29.94
2022-11-04T11:14:29.978Z,29.81
2022-11-04T11:16:05.773Z,29.91
2022-11-04T11:17:38.402Z,29.84
2022-11-04T11:19:12.927Z,29.83
2022-11-04T11:20:48.571Z,29.57
2022-11-04T11:22:38.830Z,29.40
2022-11-04T11:24:13.409Z,29.35
2022-11-04T11:25:49.240Z,29.43
2022-11-04T11:27:23.097Z,29.02
2022-11-04T11:29:02.760Z,29.20
2022-11-04T11:30:54.294Z,29.19
2022-11-04T11:32:33.294Z,28.98
2022-11-04T11:34:14.757Z,29.12
2022-11-04T11:36:13.088Z,28.74
2022-11-04T11:37:47.875Z,29.01
2022-11-04T11:39:19.746Z,28.84
2022-11-04T11:41:18.802Z,28.92
2022-11-04T11:42:44.713Z,28.88
2022-11-04T11:44:20.514Z,28.91
2022-11-04T11:45:52.094Z,28.59
2022-11-04T11:47:28.337Z,28.79
2022-11-04T11:49:03.896Z,28.82
2022-11-04T11:50:36.356Z,28.50
2022-11-04T11:52:25.943Z,28.55
2022-11-04T11:54:02.879Z,28.29
2022-11-04T11:55:37.747Z,28.40
2022-11-04T11:57:23.984Z,28.16
2022-11-04T12:01:08.335Z,28.30
2022-11-04T12:02:46.393Z,28.39
2022-11-04T12:09:48.403Z,28.25
2022-11-04T12:11:26.402Z,27.87
2022-11-04T12:13:00.700Z,27.99
2022-11-04T12:14:46.117Z,27.62
2022-11-04T12:16:22.476Z,27.69
2022-11-04T12:17:54.110Z,27.88
2022-11-04T12:19:26.473Z,27.46
2022-11-04T12:21:01.239Z,27.60
2022-11-04T12:22:41.162Z,27.78
2022-11-04T12:24:19.926Z,27.54
2022-11-04T12:26:01.261Z,27.44
2022-11-04T12:27:35.952Z,27.37
2022-11-04T12:29:10.840Z,27.16
2022-11-04T12:30:54.446Z,26.86
2022-11-04T12:32:41.894Z,27.38
2022-11-04T12:34:16.560Z,27.08
2022-11-04T12:35:57.440Z,26.89
2022-11-04T12:37:38.549Z,26.83
2022-11-04T12:39:29.837Z,26.85
2022-11-04T12:41:37.569Z,26.74
2022-11-04T12:43:25.846Z,26.69
2022-11-04T12:45:15.930Z,26.57
2022-11-04T12:47:04.076Z,26.89
2022-11-04T12:48:57.427Z,26.57
2022-11-04T12:50:46.939Z,26.69
2022-11-04T12:52:37.045Z,26.59
2022-11-04T12:54:24.258Z,26.56
2022-11-04T12:56:00.216Z,26.71
2022-11-04T12:57:31.869Z,26.54
2022-11-04T12:59:09.753Z,26.66
2022-11-04T13:00:41.487Z,26.80
2022-11-04T13:02:13.194Z,26.70
2022-11-04T13:04:03.579Z,26.79
2022-11-04T13:05:54.689Z,26.49
2022-11-04T13:07:46.756Z,26.46
2022-11-04T13:09:21.388Z,26.36
2022-11-04T13:10:58.802Z,26.55
2022-11-04T13:12:32.089Z,26.47
2022-11-04T13:14:10.853Z,26.63
2022-11-04T13:15:56.683Z,26.63
2022-11-04T13:17:35.123Z,26.52
2022-11-04T13:19:08.607Z,26.54
2022-11-04T13:20:49.988Z,26.57
2022-11-04T13:22:26.512Z,26.50
2022-11-04T13:24:00.150Z,26.48
2022-11-04T13:25:39.672Z,25.99
2022-11-04T13:27:14.617Z,26.36
2022-11-04T13:28:48.462Z,25.81
2022-11-04T13:30:24.050Z,25.85
2022-11-04T13:31:56.655Z,25.76
2022-11-04T13:33:57.598Z,25.73
2022-11-04T13:35:55.521Z,25.79
2022-11-04T13:37:32.048Z,25.66
2022-11-04T13:39:10.463Z,25.38
2022-11-04T13:41:18.765Z,25.46
2022-11-04T13:43:16.093Z,25.18
2022-11-04T13:44:48.826Z,25.25
2022-11-04T13:46:24.026Z,24.96
2022-11-04T13:47:57.016Z,25.13
2022-11-04T13:49:33.833Z,24.80
2022-11-04T13:51:06.555Z,24.88
2022-11-04T13:52:38.520Z,24.92
2022-11-04T13:54:25.108Z,24.55
2022-11-04T13:56:09.483Z,24.67
2022-11-04T13:57:56.287Z,24.84
2022-11-04T13:59:28.957Z,24.75
2022-11-04T14:01:19.099Z,24.74
2022-11-04T14:02:50.971Z,24.63
2022-11-04T14:04:32.192Z,24.69
2022-11-04T14:06:05.373Z,24.89
2022-11-04T14:08:02.911Z,24.99
2022-11-04T14:09:35.955Z,25.06
2022-11-04T14:11:08.876Z,25.12
2022-11-04T14:12:40.833Z,25.02
2022-11-04T14:14:16.487Z,25.14
2022-11-04T14:16:07.187Z,25.31
2022-11-04T14:17:39.162Z,25.38
2022-11-04T14:19:30.692Z,25.28
2022-11-04T14:21:02.564Z,25.54
2022-11-04T14:22:43.878Z,25.59
2022-11-04T14:24:18.357Z,25.79
2022-11-04T14:25:59.176Z,25.81
2022-11-04T14:27:34.720Z,25.93
2022-11-04T14:29:07.501Z,25.88
2022-11-04T14:30:43.105Z,25.90
2022-11-04T14:32:14.879Z,26.12
2022-11-04T14:33:51.566Z,26.02
2022-11-04T14:35:23.292Z,26.20
2022-11-04T14:36:59.117Z,26.25
2022-11-04T14:38:31.098Z,26.35
2022-11-04T14:40:04.772Z,26.40
2022-11-04T14:41:52.762Z,26.49
2022-11-04T14:43:30.330Z,26.69
2022-11-04T14:45:02.626Z,26.64
2022-11-04T14:46:35.255Z,26.79
2022-11-04T14:48:16.588Z,26.74
2022-11-04T14:49:51.686Z,26.86
2022-11-04T14:51:26.343Z,26.97
2022-11-04T14:52:59.464Z,26.89
2022-11-04T14:54:31.888Z,27.00
2022-11-04T14:56:07.457Z,26.96
2022-11-04T14:57:39.979Z,27.05
2022-11-04T14:59:19.155Z,27.19
2022-11-04T15:00:50.769Z,27.17
2022-11-04T15:02:23.634Z,27.11
2022-11-04T15:04:11.417Z,27.29
2022-11-04T15:05:50.797Z,27.33
2022-11-04T15:07:41.153Z,27.42
2022-11-04T15:09:19.941Z,27.41
2022-11-04T15:10:51.657Z,27.64
2022-11-04T15:12:41.921Z,27.69
2022-11-04T15:14:20.338Z,27.67
2022-11-04T15:15:53.516Z,27.67
2022-11-04T15:17:25.761Z,27.61
2022-11-04T15:18:57.737Z,27.70
2022-11-04T15:20:30.993Z,27.75
2022-11-04T15:22:03.893Z,27.67
2022-11-04T15:23:36.938Z,27.75
2022-11-04T15:25:10.716Z,27.78
2022-11-04T15:26:42.343Z,27.97
2022-11-04T15:28:21.430Z,28.00
2022-11-04T15:29:55.471Z,27.93
2022-11-04T15:31:27.987Z,28.19
2022-11-04T15:33:00.352Z,28.26
2022-11-04T15:34:32.066Z,28.27
2022-11-04T15:36:03.692Z,28.08
2022-11-04T15:37:35.355Z,28.24
2022-11-04T15:39:15.108Z,28.35
2022-11-04T15:40:46.633Z,28.22
2022-11-04T15:42:37.119Z,28.40
2022-11-04T15:44:15.955Z,28.45
2022-11-04T15:45:47.528Z,28.50
2022-11-04T15:47:20.154Z,28.78
2022-11-04T15:49:05.139Z,28.72
2022-11-04T15:50:36.826Z,28.84
2022-11-04T15:52:09.061Z,28.97
2022-11-04T15:53:48.490Z,28.70
2022-11-04T15:55:20.918Z,28.77
2022-11-04T15:56:55.472Z,28.83
2022-11-04T15:58:27.969Z,29.03
2022-11-04T16:00:08.588Z,28.95
2022-11-04T16:01:47.676Z,28.99
2022-11-04T16:03:19.411Z,29.18
2022-11-04T16:05:07.143Z,29.27
2022-11-04T16:06:43.060Z,29.04
2022-11-04T16:08:18.573Z,29.16
2022-11-04T16:09:54.433Z,29.44
2022-11-04T16:11:26.556Z,29.33
2022-11-04T16:13:20.604Z,29.33
2022-11-04T16:14:52.397Z,29.14
2022-11-04T16:16:24.889Z,29.39
2022-11-04T16:17:56.555Z,29.52
2022-11-04T16:19:28.778Z,29.52
2022-11-04T16:21:02.322Z,29.69
2022-11-04T16:22:39.409Z,29.83
2022-11-04T16:24:23.626Z,29.94
2022-11-04T16:26:01.204Z,29.78
2022-11-04T16:27:33.953Z,29.90
2022-11-04T16:29:09.477Z,29.80
2022-11-04T16:30:41.198Z,30.02
2022-11-04T16:32:18.779Z,30.01
2022-11-04T16:33:50.666Z,29.93
2022-11-04T16:35:24.414Z,30.15
2022-11-04T16:36:58.443Z,29.96
2022-11-04T16:38:30.572Z,30.14
2022-11-04T16:40:02.263Z,30.02
2022-11-04T16:41:34.740Z,30.08
2022-11-04T16:43:06.203Z,30.20
2022-11-04T16:44:38.355Z,30.36
2022-11-04T16:46:10.084Z,30.51
2022-11-04T16:47:41.658Z,30.59
2022-11-04T16:49:16.906Z,30.54
2022-11-04T16:50:49.661Z,30.62
2022-11-04T16:52:23.135Z,30.57
2022-11-04T16:53:54.838Z,30.81
2022-11-04T16:55:26.628Z,30.64
2022-11-04T16:56:58.391Z,30.72
2022-11-04T16:58:29.996Z,30.66
2022-11-04T17:00:01.650Z,30.86
2022-11-04T17:01:33.279Z,30.81
2022-11-04T17:03:24.262Z,30.85
2022-11-04T17:04:55.941Z,30.88
2022-11-04T17:06:27.682Z,30.81
2022-11-04T17:08:04.729Z,31.04
2022-11-04T17:09:36.568Z,30.93
2022-11-04T17:11:08.293Z,30.98
2022-11-04T17:12:39.914Z,31.02
2022-11-04T17:14:11.579Z,31.19
2022-11-04T17:15:43.123Z,31.08
2022-11-04T17:17:14.965Z,30.93
2022-11-04T17:18:47.349Z,30.92
2022-11-04T17:20:19.473Z,31.06
2022-11-04T17:21:51.509Z,31.00
2022-11-04T17:23:23.371Z,31.08
2022-11-04T17:24:55.416Z,31.26
2022-11-04T17:26:27.112Z,31.29
2022-11-04T17:27:59.186Z,31.34
2022-11-04T17:29:31.683Z,31.34
2022-11-04T17:31:03.410Z,31.30
2022-11-04T17:32:35.063Z,31.60
2022-11-04T17:34:06.807Z,31.51
2022-11-04T17:35:38.859Z,31.55
2022-11-04T17:37:13.743Z,31.65
2022-11-04T17:38:45.677Z,31.60
2022-11-04T17:40:17.913Z,31.74
2022-11-04T17:42:08.270Z,31.61
2022-11-04T17:43:58.497Z,31.73
2022-11-04T17:45:30.209Z,31.77
2022-11-04T17:47:01.970Z,31.78
2022-11-04T17:48:33.651Z,31.96
2022-11-04T17:50:06.908Z,31.99
2022-11-04T17:51:39.849Z,32.06
2022-11-04T17:53:12.091Z,32.11
2022-11-04T17:54:44.316Z,32.24
2022-11-04T17:56:16.826Z,32.18
2022-11-04T17:57:48.472Z,32.36
2022-11-04T17:59:20.903Z,32.36
2022-11-04T18:00:52.952Z,32.32
2022-11-04T18:02:24.724Z,32.17
2022-11-04T18:03:56.950Z,32.34
2022-11-04T18:05:28.871Z,32.41
2022-11-04T18:07:03.146Z,32.48
2022-11-04T18:08:35.052Z,32.58
2022-11-04T18:10:06.957Z,32.54
2022-11-04T18:11:57.439Z,32.52
2022-11-04T18:13:29.411Z,32.59
2022-11-04T18:15:01.479Z,32.47
2022-11-04T18:16:33.244Z,32.43
2022-11-04T18:18:04.941Z,32.63
2022-11-04T18:19:36.599Z,32.64
2022-11-04T18:21:08.519Z,32.75
2022-11-04T18:22:40.335Z,32.75
2022-11-04T18:24:12.225Z,32.73
2022-11-04T18:25:49.603Z,32.83
2022-11-04T18:27:22.336Z,32.84
2022-11-04T18:28:54.000Z,32.86
2022-11-04T18:30:25.493Z,33.09
2022-11-04T18:31:57.838Z,33.11
2022-11-04T18:33:29.396Z,33.25
2022-11-04T18:35:01.860Z,33.17
2022-11-04T18:36:38.006Z,33.29
2022-11-04T18:38:09.741Z,33.26
2022-11-04T18:39:42.813Z,33.27
2022-11-04T18:41:14.459Z,33.43
2022-11-04T18:42:46.237Z,33.38
2022-11-04T18:44:22.202Z,33.27
2022-11-04T18:45:54.149Z,33.19
2022-11-04T18:47:26.884Z,33.31
2022-11-04T18:48:59.559Z,33.29
2022-11-04T18:50:31.781Z,33.48
2022-11-04T18:52:03.362Z,33.37
2022-11-04T18:53:35.641Z,33.53
2022-11-04T18:55:07.834Z,33.68
2022-11-04T18:56:39.802Z,33.75
2022-11-04T18:58:11.605Z,33.78
2022-11-04T18:59:43.700Z,33.88
2022-11-04T19:01:25.806Z,33.82
2022-11-04T19:02:57.605Z,33.95
2022-11-04T19:04:29.895Z,34.10
2022-11-04T19:06:04.935Z,34.12
2022-11-04T19:07:36.789Z,34.29
2022-11-04T19:09:40.093Z,34.30
2022-11-04T19:11:02.048Z,34.21
2022-11-04T19:12:53.057Z,34.33
2022-11-04T19:14:24.708Z,34.54
2022-11-04T19:15:56.818Z,34.67
2022-11-04T19:17:28.443Z,34.64
2022-11-04T19:19:00.573Z,34.94
2022-11-04T19:20:32.654Z,34.69
2022-11-04T19:22:04.226Z,34.95
2022-11-04T19:23:36.042Z,35.04
2022-11-04T19:25:07.894Z,35.02
2022-11-04T19:26:41.056Z,35.25
2022-11-04T19:28:34.724Z,35.37
2022-11-04T19:30:05.485Z,35.31
2022-11-04T19:31:38.767Z,35.45
2022-11-04T19:33:10.938Z,35.34
2022-11-04T19:34:42.816Z,35.30
2022-11-04T19:36:15.375Z,35.62
2022-11-04T19:37:47.100Z,35.52
2022-11-04T19:39:19.009Z,35.54
2022-11-04T19:40:54.053Z,35.64
2022-11-04T19:42:44.871Z,35.63
2022-11-04T19:44:17.258Z,35.84
2022-11-04T19:45:49.642Z,35.71
2022-11-04T19:47:21.300Z,35.89
2022-11-04T19:48:52.895Z,35.89
2022-11-04T19:50:25.199Z,36.12
2022-11-04T19:51:56.975Z,35.93
2022-11-04T19:53:28.640Z,36.18
2022-11-04T19:55:00.700Z,36.30
2022-11-04T19:56:33.872Z,36.17
2022-11-04T19:58:05.635Z,36.16
2022-11-04T19:59:37.465Z,36.27
2022-11-04T20:01:09.430Z,36.17
2022-11-04T20:02:41.441Z,36.32
2022-11-04T20:04:13.145Z,36.43
2022-11-04T20:05:45.272Z,36.64
2022-11-04T20:07:17.285Z,36.39
2022-11-04T20:08:53.032Z,36.71
2022-11-04T20:10:24.895Z,36.56
2022-11-04T20:12:15.189Z,36.83
2022-11-04T20:13:47.989Z,36.92
2022-11-04T20:15:19.957Z,36.72
2022-11-04T20:16:51.736Z,36.85
2022-11-04T20:18:23.553Z,36.79
2022-11-04T20:19:55.636Z,36.96
2022-11-04T20:21:28.515Z,37.00
2022-11-04T20:23:00.146Z,36.96
2022-11-04T20:24:31.986Z,37.08
2022-11-04T20:26:12.929Z,37.36
2022-11-04T20:27:47.922Z,37.49
2022-11-04T20:29:20.008Z,37.45
2022-11-04T20:30:51.625Z,37.11
2022-11-04T20:32:23.312Z,37.28
2022-11-04T20:33:56.428Z,37.30
2022-11-04T20:35:28.027Z,37.58
2022-11-04T20:37:00.671Z,37.66